createdAt,value
2019-03-19T00:00:15.829Z,0.00
2019-03-19T00:01:15.766Z,0.00
2019-03-19T00:02:15.754Z,0.00
2019-03-19T00:03:15.787Z,0.00
2019-03-19T00:04:15.720Z,0.00
2019-03-19T00:05:15.690Z,0.00
2019-03-19T00:06:15.689Z,0.00
2019-03-19T00:07:15.687Z,0.00
2019-03-19T00:08:15.676Z,0.00
2019-03-19T00:09:15.662Z,0.00
2019-03-19T00:10:15.666Z,0.00
2019-03-19T00:11:15.636Z,0.00
2019-03-19T00:12:15.623Z,0.00
2019-03-19T00:13:15.651Z,0.00
2019-03-19T00:14:15.618Z,0.00
2019-03-19T00:15:28.723Z,0.00
2019-03-19T00:16:15.570Z,0.00
2019-03-19T00:17:15.562Z,0.00
2019-03-19T00:18:15.546Z,0.00
2019-03-19T00:19:15.555Z,0.00
2019-03-19T00:20:15.534Z,0.00
2019-03-19T00:21:15.516Z,0.00
2019-03-19T00:22:15.520Z,0.00
2019-03-19T00:23:15.497Z,0.00
2019-03-19T00:24:15.496Z,0.00
2019-03-19T00:25:15.510Z,0.00
2019-03-19T00:26:15.465Z,0.00
2019-03-19T00:27:15.450Z,0.00
2019-03-19T00:28:15.440Z,0.00
2019-03-19T00:29:15.429Z,0.00
2019-03-19T00:30:15.417Z,0.00
2019-03-19T00:31:15.459Z,0.00
2019-03-19T00:32:15.396Z,0.00
2019-03-19T00:33:15.394Z,0.00
2019-03-19T00:34:15.372Z,0.00
2019-03-19T00:35:15.376Z,0.00
2019-03-19T00:36:17.341Z,0.00
2019-03-19T00:37:15.346Z,0.00
2019-03-19T00:38:15.330Z,0.00
2019-03-19T00:39:15.327Z,0.00
2019-03-19T00:40:15.365Z,0.00
2019-03-19T00:41:15.297Z,0.00
2019-03-19T00:42:15.331Z,0.00
2019-03-19T00:43:15.274Z,0.00
2019-03-19T00:44:15.265Z,0.00
2019-03-19T00:45:15.265Z,0.00
2019-03-19T00:46:27.296Z,0.00
2019-03-19T00:47:15.265Z,0.00
2019-03-19T00:48:15.231Z,0.00
2019-03-19T00:49:15.233Z,0.00
2019-03-19T00:50:15.206Z,0.00
2019-03-19T00:51:15.203Z,0.00
2019-03-19T00:52:15.229Z,0.00
2019-03-19T00:53:15.170Z,0.00
2019-03-19T00:54:16.166Z,0.00
2019-03-19T00:55:15.154Z,0.00
2019-03-19T00:56:15.147Z,0.00
2019-03-19T00:57:15.129Z,0.00
2019-03-19T00:58:15.127Z,0.00
2019-03-19T00:59:15.108Z,0.00
2019-03-19T01:00:15.098Z,0.00
2019-03-19T01:01:15.159Z,0.00
2019-03-19T01:02:15.086Z,0.00
2019-03-19T01:03:15.076Z,0.00
2019-03-19T01:04:15.060Z,0.00
2019-03-19T01:05:15.063Z,0.00
2019-03-19T01:06:15.030Z,0.00
2019-03-19T01:07:15.015Z,0.00
2019-03-19T01:08:15.208Z,0.00
2019-03-19T01:09:14.995Z,0.00
2019-03-19T01:10:17.234Z,0.00
2019-03-19T01:11:14.978Z,0.00
2019-03-19T01:12:15.620Z,0.00
2019-03-19T01:13:14.974Z,0.00
2019-03-19T01:14:14.989Z,0.00
2019-03-19T01:15:14.934Z,0.00
2019-03-19T01:16:14.917Z,0.00
2019-03-19T01:17:28.022Z,0.00
2019-03-19T01:18:14.914Z,0.00
2019-03-19T01:19:14.965Z,0.00
2019-03-19T01:20:14.927Z,0.00
2019-03-19T01:21:14.864Z,0.00
2019-03-19T01:22:14.868Z,0.00
2019-03-19T01:23:14.925Z,0.00
2019-03-19T01:24:14.832Z,0.00
2019-03-19T01:25:14.839Z,0.00
2019-03-19T01:26:14.959Z,0.00
2019-03-19T01:27:14.800Z,0.00
2019-03-19T01:28:14.803Z,0.00
2019-03-19T01:29:15.640Z,0.00
2019-03-19T01:30:15.149Z,0.00
2019-03-19T01:31:14.754Z,0.00
2019-03-19T01:32:14.761Z,0.00
2019-03-19T01:33:14.744Z,0.00
2019-03-19T01:34:14.740Z,0.00
2019-03-19T01:35:14.721Z,0.00
2019-03-19T01:36:14.716Z,0.00
2019-03-19T01:37:14.742Z,0.00
2019-03-19T01:38:14.686Z,0.00
2019-03-19T01:39:14.675Z,0.00
2019-03-19T01:40:14.664Z,0.00
2019-03-19T01:41:14.696Z,0.00
2019-03-19T01:42:14.639Z,0.00
2019-03-19T01:43:14.626Z,0.00
2019-03-19T01:44:14.620Z,0.00
2019-03-19T01:45:14.606Z,0.00
2019-03-19T01:46:14.638Z,0.00
2019-03-19T01:47:14.587Z,0.00
2019-03-19T01:48:27.997Z,0.00
2019-03-19T01:49:14.566Z,0.00
2019-03-19T01:50:14.570Z,0.00
2019-03-19T01:51:14.542Z,0.00
2019-03-19T01:52:14.578Z,0.00
2019-03-19T01:53:14.525Z,0.00
2019-03-19T01:54:14.512Z,0.00
2019-03-19T01:55:14.519Z,0.00
2019-03-19T01:56:14.483Z,0.00
2019-03-19T01:57:14.482Z,0.00
2019-03-19T01:58:14.503Z,0.00
2019-03-19T01:59:14.456Z,0.00
2019-03-19T02:00:14.448Z,0.00
2019-03-19T02:01:14.434Z,0.00
2019-03-19T02:02:14.501Z,0.00
2019-03-19T02:03:14.428Z,0.00
2019-03-19T02:04:14.432Z,0.00
2019-03-19T02:05:14.401Z,0.00
2019-03-19T02:06:14.372Z,0.00
2019-03-19T02:07:14.373Z,0.00
2019-03-19T02:08:14.371Z,0.00
2019-03-19T02:09:14.463Z,0.00
2019-03-19T02:10:14.416Z,0.00
2019-03-19T02:11:14.326Z,0.00
2019-03-19T02:12:14.322Z,0.00
2019-03-19T02:13:14.333Z,0.00
2019-03-19T02:14:14.296Z,0.00
2019-03-19T02:15:14.294Z,0.00
2019-03-19T02:16:14.282Z,0.00
2019-03-19T02:17:14.267Z,0.00
2019-03-19T02:18:14.256Z,0.00
2019-03-19T02:19:28.215Z,0.00
2019-03-19T02:20:14.293Z,0.00
2019-03-19T02:21:14.208Z,0.00
2019-03-19T02:22:14.217Z,0.00
2019-03-19T02:23:14.191Z,0.00
2019-03-19T02:24:14.185Z,0.00
2019-03-19T02:25:14.187Z,0.00
2019-03-19T02:26:16.828Z,0.00
2019-03-19T02:27:14.142Z,0.00
2019-03-19T02:28:14.151Z,0.00
2019-03-19T02:29:14.134Z,0.00
2019-03-19T02:30:14.148Z,0.00
2019-03-19T02:31:14.119Z,0.00
2019-03-19T02:32:14.145Z,0.00
2019-03-19T02:33:14.108Z,0.00
2019-03-19T02:34:14.075Z,0.00
2019-03-19T02:35:14.085Z,0.00
2019-03-19T02:36:14.066Z,0.00
2019-03-19T02:37:14.037Z,0.00
2019-03-19T02:38:14.078Z,0.00
2019-03-19T02:39:14.021Z,0.00
2019-03-19T02:40:14.025Z,0.00
2019-03-19T02:41:13.996Z,0.00
2019-03-19T02:42:13.980Z,0.00
2019-03-19T02:43:14.029Z,0.00
2019-03-19T02:44:13.977Z,0.00
2019-03-19T02:45:14.028Z,0.00
2019-03-19T02:46:13.966Z,0.00
2019-03-19T02:47:13.939Z,0.00
2019-03-19T02:48:13.934Z,0.00
2019-03-19T02:49:13.938Z,0.00
2019-03-19T02:50:26.900Z,0.00
2019-03-19T02:51:13.892Z,0.00
2019-03-19T02:52:13.872Z,0.00
2019-03-19T02:53:13.870Z,0.00
2019-03-19T02:54:13.873Z,0.00
2019-03-19T02:55:13.888Z,0.00
2019-03-19T02:56:13.839Z,0.00
2019-03-19T02:57:13.821Z,0.00
2019-03-19T02:58:13.840Z,0.00
2019-03-19T02:59:13.797Z,0.00
2019-03-19T03:00:13.792Z,0.00
2019-03-19T03:01:13.792Z,0.00
2019-03-19T03:02:13.766Z,0.00
2019-03-19T03:03:13.828Z,0.00
2019-03-19T03:04:13.759Z,0.00
2019-03-19T03:05:13.766Z,0.00
2019-03-19T03:06:13.716Z,0.00
2019-03-19T03:07:13.710Z,0.00
2019-03-19T03:08:13.711Z,0.00
2019-03-19T03:09:13.684Z,0.00
2019-03-19T03:10:13.678Z,0.00
2019-03-19T03:11:13.714Z,0.00
2019-03-19T03:12:13.664Z,0.00
2019-03-19T03:13:13.645Z,0.00
2019-03-19T03:14:13.637Z,0.00
2019-03-19T03:15:13.620Z,0.00
2019-03-19T03:16:13.626Z,0.00
2019-03-19T03:17:13.635Z,0.00
2019-03-19T03:18:13.624Z,0.00
2019-03-19T03:19:13.577Z,0.00
2019-03-19T03:20:13.590Z,0.00
2019-03-19T03:21:27.248Z,0.00
2019-03-19T03:22:13.558Z,0.00
2019-03-19T03:23:13.527Z,0.00
2019-03-19T03:24:13.537Z,0.00
2019-03-19T03:25:13.518Z,0.00
2019-03-19T03:26:13.499Z,0.00
2019-03-19T03:27:13.487Z,0.00
2019-03-19T03:28:13.503Z,0.00
2019-03-19T03:29:13.463Z,0.00
2019-03-19T03:30:13.476Z,0.00
2019-03-19T03:31:13.440Z,0.00
2019-03-19T03:32:13.431Z,0.00
2019-03-19T03:33:13.436Z,0.00
2019-03-19T03:34:13.432Z,0.00
2019-03-19T03:35:13.413Z,0.00
2019-03-19T03:36:13.385Z,0.00
2019-03-19T03:37:13.375Z,0.00
2019-03-19T03:38:13.366Z,0.00
2019-03-19T03:39:13.391Z,0.00
2019-03-19T03:40:13.347Z,0.00
2019-03-19T03:41:13.333Z,0.00
2019-03-19T03:42:13.317Z,0.00
2019-03-19T03:43:13.307Z,0.00
2019-03-19T03:44:13.305Z,0.00
2019-03-19T03:45:13.326Z,0.00
2019-03-19T03:46:13.289Z,0.00
2019-03-19T03:47:13.263Z,0.00
2019-03-19T03:48:13.256Z,0.00
2019-03-19T03:49:13.252Z,0.00
2019-03-19T03:50:13.233Z,0.00
2019-03-19T03:51:13.253Z,0.00
2019-03-19T03:52:26.686Z,0.00
2019-03-19T03:53:13.201Z,0.00
2019-03-19T03:54:13.185Z,0.00
2019-03-19T03:55:13.195Z,0.00
2019-03-19T03:56:13.170Z,0.00
2019-03-19T03:57:13.259Z,0.00
2019-03-19T03:58:13.150Z,0.00
2019-03-19T03:59:13.137Z,0.00
2019-03-19T04:00:13.129Z,0.00
2019-03-19T04:01:13.121Z,0.00
2019-03-19T04:02:13.137Z,0.00
2019-03-19T04:03:13.091Z,0.00
2019-03-19T04:04:13.084Z,0.00
2019-03-19T04:05:13.073Z,0.00
2019-03-19T04:06:13.070Z,0.00
2019-03-19T04:07:13.047Z,0.00
2019-03-19T04:08:13.324Z,0.00
2019-03-19T04:09:13.034Z,0.00
2019-03-19T04:10:13.079Z,0.00
2019-03-19T04:11:13.003Z,0.00
2019-03-19T04:12:12.995Z,0.00
2019-03-19T04:13:12.971Z,0.00
2019-03-19T04:14:12.981Z,0.00
2019-03-19T04:15:13.030Z,0.00
2019-03-19T04:16:12.949Z,0.00
2019-03-19T04:17:12.929Z,0.00
2019-03-19T04:18:12.955Z,0.00
2019-03-19T04:19:12.954Z,0.00
2019-03-19T04:20:12.922Z,0.00
2019-03-19T04:21:12.893Z,0.00
2019-03-19T04:22:15.814Z,5.62
2019-03-19T04:23:24.757Z,5.62
2019-03-19T04:24:12.867Z,5.62
2019-03-19T04:25:12.882Z,5.62
2019-03-19T04:26:12.851Z,5.62
2019-03-19T04:27:16.260Z,5.62
2019-03-19T04:28:12.828Z,5.62
2019-03-19T04:29:12.805Z,5.62
2019-03-19T04:30:13.874Z,5.62
2019-03-19T04:31:12.790Z,5.62
2019-03-19T04:32:12.775Z,5.62
2019-03-19T04:33:12.758Z,5.62
2019-03-19T04:34:12.767Z,5.62
2019-03-19T04:35:12.745Z,5.62
2019-03-19T04:36:12.749Z,5.62
2019-03-19T04:37:12.719Z,5.62
2019-03-19T04:38:12.712Z,5.62
2019-03-19T04:39:12.687Z,5.62
2019-03-19T04:40:12.678Z,11.25
2019-03-19T04:41:12.848Z,11.25
2019-03-19T04:42:12.657Z,11.25
2019-03-19T04:43:12.642Z,11.25
2019-03-19T04:44:12.632Z,11.25
2019-03-19T04:45:12.636Z,11.25
2019-03-19T04:46:12.619Z,11.25
2019-03-19T04:47:12.616Z,11.25
2019-03-19T04:48:12.607Z,11.25
2019-03-19T04:49:12.606Z,11.25
2019-03-19T04:50:12.566Z,11.25
2019-03-19T04:51:12.564Z,11.25
2019-03-19T04:52:12.660Z,11.25
2019-03-19T04:53:12.547Z,11.25
2019-03-19T04:54:25.551Z,11.25
2019-03-19T04:55:12.507Z,11.25
2019-03-19T04:56:12.516Z,16.88
2019-03-19T04:57:12.491Z,16.88
2019-03-19T04:58:12.516Z,16.88
2019-03-19T04:59:12.467Z,16.88
2019-03-19T05:00:12.512Z,16.88
2019-03-19T05:01:12.449Z,16.88
2019-03-19T05:02:12.437Z,22.50
2019-03-19T05:03:12.442Z,22.50
2019-03-19T05:04:12.441Z,22.50
2019-03-19T05:05:12.403Z,22.50
2019-03-19T05:06:12.395Z,22.50
2019-03-19T05:07:12.489Z,28.12
2019-03-19T05:08:12.364Z,28.12
2019-03-19T05:09:12.358Z,33.75
2019-03-19T05:10:12.355Z,39.38
2019-03-19T05:11:12.335Z,45.00
2019-03-19T05:12:12.328Z,39.38
2019-03-19T05:13:12.319Z,39.38
2019-03-19T05:14:12.348Z,33.75
2019-03-19T05:15:12.294Z,33.75
2019-03-19T05:16:12.292Z,33.75
2019-03-19T05:17:12.261Z,33.75
2019-03-19T05:18:12.281Z,39.38
2019-03-19T05:19:12.254Z,39.38
2019-03-19T05:20:12.281Z,39.38
2019-03-19T05:21:12.241Z,39.38
2019-03-19T05:22:12.213Z,39.38
2019-03-19T05:23:12.197Z,45.00
2019-03-19T05:24:12.193Z,45.00
2019-03-19T05:25:22.366Z,45.00
2019-03-19T05:26:12.193Z,45.00
2019-03-19T05:27:13.960Z,50.62
2019-03-19T05:28:12.141Z,50.62
2019-03-19T05:29:12.140Z,56.25
2019-03-19T05:30:12.128Z,56.25
2019-03-19T05:31:12.140Z,56.25
2019-03-19T05:32:12.121Z,61.88
2019-03-19T05:33:12.105Z,61.88
2019-03-19T05:34:12.080Z,56.25
2019-03-19T05:35:12.070Z,56.25
2019-03-19T05:36:12.100Z,56.25
2019-03-19T05:37:12.057Z,56.25
2019-03-19T05:38:12.053Z,50.62
2019-03-19T05:39:12.053Z,50.62
2019-03-19T05:40:12.072Z,50.62
2019-03-19T05:41:12.000Z,50.62
2019-03-19T05:42:12.037Z,50.62
2019-03-19T05:43:11.980Z,45.00
2019-03-19T05:44:11.993Z,45.00
2019-03-19T05:45:11.989Z,39.38
2019-03-19T05:46:11.949Z,39.38
2019-03-19T05:47:11.939Z,39.38
2019-03-19T05:48:11.965Z,39.38
2019-03-19T05:49:11.975Z,45.00
2019-03-19T05:50:11.917Z,45.00
2019-03-19T05:51:11.894Z,45.00
2019-03-19T05:52:11.901Z,45.00
2019-03-19T05:53:12.210Z,45.00
2019-03-19T05:54:11.896Z,45.00
2019-03-19T05:55:11.849Z,50.62
2019-03-19T05:56:24.783Z,56.25
2019-03-19T05:57:11.860Z,56.25
2019-03-19T05:58:11.825Z,56.25
2019-03-19T05:59:11.855Z,56.25
2019-03-19T06:00:11.806Z,56.25
2019-03-19T06:01:11.889Z,61.88
2019-03-19T06:02:12.759Z,61.88
2019-03-19T06:03:12.764Z,61.88
2019-03-19T06:04:11.752Z,61.88
2019-03-19T06:05:11.772Z,67.50
2019-03-19T06:06:11.721Z,73.12
2019-03-19T06:07:11.746Z,78.75
2019-03-19T06:08:11.725Z,78.75
2019-03-19T06:09:11.698Z,78.75
2019-03-19T06:10:11.685Z,78.75
2019-03-19T06:11:11.695Z,78.75
2019-03-19T06:12:11.659Z,78.75
2019-03-19T06:13:11.662Z,73.12
2019-03-19T06:14:11.642Z,73.12
2019-03-19T06:15:11.627Z,73.12
2019-03-19T06:16:11.619Z,73.12
2019-03-19T06:17:11.613Z,67.50
2019-03-19T06:18:11.591Z,67.50
2019-03-19T06:19:11.590Z,67.50
2019-03-19T06:20:11.585Z,73.12
2019-03-19T06:21:11.573Z,73.12
2019-03-19T06:22:11.576Z,73.12
2019-03-19T06:23:11.631Z,78.75
2019-03-19T06:24:11.530Z,78.75
2019-03-19T06:25:11.614Z,78.75
2019-03-19T06:26:11.506Z,84.38
2019-03-19T06:27:22.957Z,90.00
2019-03-19T06:28:11.586Z,95.62
2019-03-19T06:29:11.472Z,90.00
2019-03-19T06:30:11.463Z,90.00
2019-03-19T06:31:11.459Z,90.00
2019-03-19T06:32:11.457Z,95.62
2019-03-19T06:33:11.456Z,95.62
2019-03-19T06:34:11.424Z,106.88
2019-03-19T06:35:11.417Z,106.88
2019-03-19T06:36:11.419Z,106.88
2019-03-19T06:37:11.405Z,112.50
2019-03-19T06:38:11.374Z,118.12
2019-03-19T06:39:11.386Z,123.75
2019-03-19T06:40:11.353Z,123.75
2019-03-19T06:41:11.407Z,123.75
2019-03-19T06:42:11.342Z,129.38
2019-03-19T06:43:11.354Z,140.62
2019-03-19T06:44:11.313Z,146.25
2019-03-19T06:45:11.314Z,151.88
2019-03-19T06:46:11.299Z,157.50
2019-03-19T06:47:11.277Z,157.50
2019-03-19T06:48:11.354Z,157.50
2019-03-19T06:49:11.253Z,157.50
2019-03-19T06:50:11.307Z,157.50
2019-03-19T06:51:11.252Z,157.50
2019-03-19T06:52:11.223Z,163.12
2019-03-19T06:53:11.236Z,163.12
2019-03-19T06:54:11.199Z,168.75
2019-03-19T06:55:11.215Z,174.38
2019-03-19T06:56:15.924Z,180.00
2019-03-19T06:57:11.217Z,191.25
2019-03-19T06:58:23.247Z,191.25
2019-03-19T06:59:11.151Z,196.88
2019-03-19T07:00:11.138Z,185.62
2019-03-19T07:01:11.125Z,180.00
2019-03-19T07:02:11.127Z,174.38
2019-03-19T07:04:26.858Z,168.75
2019-03-19T07:05:26.824Z,163.12
2019-03-19T07:06:26.976Z,157.50
2019-03-19T07:07:26.806Z,151.88
2019-03-19T07:08:26.815Z,146.25
2019-03-19T07:09:26.782Z,140.62
2019-03-19T07:10:26.779Z,146.25
2019-03-19T07:11:26.763Z,135.00
2019-03-19T07:12:26.766Z,135.00
2019-03-19T07:13:26.734Z,135.00
2019-03-19T07:14:26.731Z,135.00
2019-03-19T07:15:26.717Z,135.00
2019-03-19T07:16:26.756Z,140.62
2019-03-19T07:17:26.730Z,140.62
2019-03-19T07:18:26.684Z,157.50
2019-03-19T07:19:26.670Z,151.88
2019-03-19T07:20:34.367Z,157.50
2019-03-19T07:21:26.692Z,157.50
2019-03-19T07:22:26.651Z,157.50
2019-03-19T07:23:26.665Z,151.88
2019-03-19T07:24:34.410Z,151.88
2019-03-19T07:25:35.626Z,146.25
2019-03-19T07:26:26.636Z,140.62
2019-03-19T07:27:26.595Z,140.62
2019-03-19T07:28:26.662Z,135.00
2019-03-19T07:29:26.641Z,140.62
2019-03-19T07:30:26.695Z,135.00
2019-03-19T07:31:30.866Z,140.62
2019-03-19T07:32:35.032Z,135.00
2019-03-19T07:33:26.516Z,135.00
2019-03-19T07:34:26.505Z,129.38
2019-03-19T07:35:26.503Z,135.00
2019-03-19T07:36:26.481Z,129.38
2019-03-19T07:37:26.477Z,135.00
2019-03-19T07:38:26.460Z,129.38
2019-03-19T07:39:26.457Z,123.75
2019-03-19T07:40:26.458Z,123.75
2019-03-19T07:41:26.427Z,123.75
2019-03-19T07:42:26.419Z,123.75
2019-03-19T07:43:26.407Z,129.38
2019-03-19T07:44:26.404Z,129.38
2019-03-19T07:45:26.403Z,129.38
2019-03-19T07:46:26.382Z,135.00
2019-03-19T07:47:26.356Z,140.62
2019-03-19T07:48:26.356Z,151.88
2019-03-19T07:49:26.337Z,163.12
2019-03-19T07:50:26.368Z,163.12
2019-03-19T07:51:26.325Z,163.12
2019-03-19T07:52:34.658Z,168.75
2019-03-19T07:53:26.347Z,180.00
2019-03-19T07:54:26.371Z,174.38
2019-03-19T07:55:26.341Z,185.62
2019-03-19T07:57:42.547Z,185.62
2019-03-19T07:58:45.440Z,185.62
2019-03-19T07:59:42.534Z,185.62
2019-03-19T08:00:42.517Z,191.25
2019-03-19T08:01:42.503Z,191.25
2019-03-19T08:02:42.445Z,196.88
2019-03-19T08:03:42.516Z,196.88
2019-03-19T08:04:42.432Z,208.12
2019-03-19T08:05:42.410Z,236.25
2019-03-19T08:06:42.392Z,225.00
2019-03-19T08:07:42.392Z,225.00
2019-03-19T08:08:42.374Z,230.62
2019-03-19T08:09:42.509Z,236.25
2019-03-19T08:10:42.361Z,241.88
2019-03-19T08:11:42.339Z,247.50
2019-03-19T08:12:42.341Z,236.25
2019-03-19T08:13:50.168Z,230.62
2019-03-19T08:14:42.305Z,230.62
2019-03-19T08:15:42.311Z,230.62
2019-03-19T08:16:42.288Z,230.62
2019-03-19T08:17:43.158Z,236.25
2019-03-19T08:18:42.260Z,253.12
2019-03-19T08:19:43.849Z,264.38
2019-03-19T08:20:42.263Z,264.38
2019-03-19T08:21:42.239Z,275.62
2019-03-19T08:22:42.219Z,281.25
2019-03-19T08:23:42.204Z,286.88
2019-03-19T08:24:42.201Z,286.88
2019-03-19T08:25:42.190Z,286.88
2019-03-19T08:26:42.180Z,298.12
2019-03-19T08:27:42.167Z,298.12
2019-03-19T08:28:42.145Z,286.88
2019-03-19T08:29:42.165Z,286.88
2019-03-19T08:30:42.298Z,303.75
2019-03-19T08:31:42.163Z,309.38
2019-03-19T08:32:44.281Z,309.38
2019-03-19T08:33:42.091Z,309.38
2019-03-19T08:34:42.094Z,315.00
2019-03-19T08:35:42.417Z,309.38
2019-03-19T08:36:42.237Z,298.12
2019-03-19T08:37:42.173Z,298.12
2019-03-19T08:38:42.038Z,303.75
2019-03-19T08:39:42.258Z,309.38
2019-03-19T08:40:42.198Z,309.38
2019-03-19T08:41:42.215Z,303.75
2019-03-19T08:42:41.999Z,309.38
2019-03-19T08:43:43.177Z,315.00
2019-03-19T08:44:55.088Z,315.00
2019-03-19T08:45:41.962Z,320.62
2019-03-19T08:46:41.944Z,326.25
2019-03-19T08:47:42.037Z,326.25
2019-03-19T08:48:41.938Z,337.50
2019-03-19T08:49:41.937Z,331.88
2019-03-19T08:50:41.912Z,326.25
2019-03-19T08:51:41.904Z,320.62
2019-03-19T08:52:41.905Z,337.50
2019-03-19T08:53:41.928Z,320.62
2019-03-19T08:54:41.875Z,292.50
2019-03-19T08:55:41.912Z,270.00
2019-03-19T08:56:48.832Z,270.00
2019-03-19T08:57:41.827Z,264.38
2019-03-19T08:58:41.914Z,258.75
2019-03-19T08:59:41.848Z,253.12
2019-03-19T09:00:41.815Z,253.12
2019-03-19T09:01:41.786Z,258.75
2019-03-19T09:02:41.839Z,253.12
2019-03-19T09:03:41.777Z,258.75
2019-03-19T09:04:41.755Z,247.50
2019-03-19T09:05:41.859Z,258.75
2019-03-19T09:06:41.793Z,270.00
2019-03-19T09:07:41.769Z,258.75
2019-03-19T09:08:41.768Z,258.75
2019-03-19T09:09:41.700Z,264.38
2019-03-19T09:10:41.742Z,264.38
2019-03-19T09:11:41.704Z,258.75
2019-03-19T09:12:41.668Z,253.12
2019-03-19T09:13:41.657Z,258.75
2019-03-19T09:14:41.640Z,270.00
2019-03-19T09:15:53.729Z,281.25
2019-03-19T09:16:41.760Z,286.88
2019-03-19T09:17:41.628Z,281.25
2019-03-19T09:18:41.603Z,275.62
2019-03-19T09:19:42.244Z,270.00
2019-03-19T09:20:41.579Z,270.00
2019-03-19T09:21:41.602Z,270.00
2019-03-19T09:22:41.573Z,264.38
2019-03-19T09:23:41.556Z,264.38
2019-03-19T09:24:41.533Z,264.38
2019-03-19T09:25:41.520Z,270.00
2019-03-19T09:26:41.601Z,270.00
2019-03-19T09:27:41.539Z,275.62
2019-03-19T09:28:41.515Z,275.62
2019-03-19T09:29:41.476Z,281.25
2019-03-19T09:30:41.481Z,292.50
2019-03-19T09:31:41.452Z,281.25
2019-03-19T09:32:41.452Z,270.00
2019-03-19T09:33:41.489Z,270.00
2019-03-19T09:34:41.442Z,275.62
2019-03-19T09:35:48.406Z,281.25
2019-03-19T09:36:41.404Z,281.25
2019-03-19T09:37:46.360Z,286.88
2019-03-19T09:38:42.394Z,286.88
2019-03-19T09:39:41.414Z,281.25
2019-03-19T09:40:41.380Z,286.88
2019-03-19T09:41:41.342Z,298.12
2019-03-19T09:42:41.410Z,292.50
2019-03-19T09:43:41.334Z,298.12
2019-03-19T09:44:41.356Z,303.75
2019-03-19T09:45:41.312Z,303.75
2019-03-19T09:46:42.326Z,309.38
2019-03-19T09:47:41.279Z,320.62
2019-03-19T09:48:41.271Z,337.50
2019-03-19T09:49:41.257Z,348.75
2019-03-19T09:50:41.285Z,354.38
2019-03-19T09:51:41.235Z,360.00
2019-03-19T09:52:41.232Z,365.62
2019-03-19T09:53:41.323Z,365.62
2019-03-19T09:54:41.206Z,348.75
2019-03-19T09:55:41.194Z,348.75
2019-03-19T09:56:41.195Z,348.75
2019-03-19T09:57:41.186Z,343.12
2019-03-19T09:58:41.180Z,337.50
2019-03-19T09:59:43.609Z,326.25
2019-03-19T10:00:41.140Z,303.75
2019-03-19T10:01:41.173Z,292.50
2019-03-19T10:02:41.111Z,292.50
2019-03-19T10:03:41.166Z,298.12
2019-03-19T10:04:41.791Z,309.38
2019-03-19T10:05:41.101Z,315.00
